sensor_id;sensor_type;location;lat;lon;timestamp;pressure;altitude;pressure_sealevel;temperature;humidity
79461;BME280;68929;42.666;23.324;2023-12-22T00:01:08;93062.31;;;9.98;49.67
79461;BME280;68929;42.666;23.324;2023-12-22T00:03:33;93046.22;;;10.21;49.66
79461;BME280;68929;42.666;23.324;2023-12-22T00:05:59;93054.41;;;9.98;50.50
79461;BME280;68929;42.666;23.324;2023-12-22T00:08:24;93048.03;;;10.15;49.24
79461;BME280;68929;42.666;23.324;2023-12-22T00:10:49;93030.34;;;10.48;48.91
79461;BME280;68929;42.666;23.324;2023-12-22T00:13:15;93041.25;;;10.88;49.41
79461;BME280;68929;42.666;23.324;2023-12-22T00:15:40;93009.81;;;10.55;47.00
79461;BME280;68929;42.666;23.324;2023-12-22T00:18:07;93030.09;;;10.81;48.93
79461;BME280;68929;42.666;23.324;2023-12-22T00:20:33;93010.03;;;10.85;48.36
79461;BME280;68929;42.666;23.324;2023-12-22T00:22:58;93005.84;;;10.89;47.99
79461;BME280;68929;42.666;23.324;2023-12-22T00:25:24;93020.41;;;10.96;48.11
79461;BME280;68929;42.666;23.324;2023-12-22T00:27:49;93026.22;;;10.57;49.53
79461;BME280;68929;42.666;23.324;2023-12-22T00:30:14;92984.03;;;10.08;49.14
79461;BME280;68929;42.666;23.324;2023-12-22T00:32:40;93019.44;;;10.66;48.21
79461;BME280;68929;42.666;23.324;2023-12-22T00:35:05;92996.66;;;10.60;48.12
79461;BME280;68929;42.666;23.324;2023-12-22T00:37:31;93009.00;;;10.54;48.60
79461;BME280;68929;42.666;23.324;2023-12-22T00:39:56;92967.03;;;10.58;49.84
79461;BME280;68929;42.666;23.324;2023-12-22T00:42:22;92952.13;;;9.83;48.50
79461;BME280;68929;42.666;23.324;2023-12-22T00:44:47;92972.59;;;10.24;49.17
79461;BME280;68929;42.666;23.324;2023-12-22T00:47:12;92972.03;;;10.54;48.60
79461;BME280;68929;42.666;23.324;2023-12-22T00:49:38;92990.31;;;11.02;48.24
79461;BME280;68929;42.666;23.324;2023-12-22T00:52:04;92987.66;;;10.61;49.05
79461;BME280;68929;42.666;23.324;2023-12-22T00:54:30;92962.16;;;11.28;48.40
79461;BME280;68929;42.666;23.324;2023-12-22T00:56:57;92918.03;;;10.03;48.37
79461;BME280;68929;42.666;23.324;2023-12-22T00:59:23;92975.56;;;10.06;49.54
79461;BME280;68929;42.666;23.324;2023-12-22T01:01:48;92973.84;;;10.49;49.38
79461;BME280;68929;42.666;23.324;2023-12-22T01:04:14;92951.31;;;10.78;47.60
79461;BME280;68929;42.666;23.324;2023-12-22T01:06:40;92970.84;;;10.77;47.78
79461;BME280;68929;42.666;23.324;2023-12-22T01:09:05;92953.63;;;10.27;48.82
79461;BME280;68929;42.666;23.324;2023-12-22T01:11:31;92955.78;;;9.77;49.25
79461;BME280;68929;42.666;23.324;2023-12-22T01:13:56;92977.81;;;9.66;48.61
79461;BME280;68929;42.666;23.324;2023-12-22T01:16:22;92959.69;;;9.48;50.00
79461;BME280;68929;42.666;23.324;2023-12-22T01:18:52;92989.03;;;9.78;50.81
79461;BME280;68929;42.666;23.324;2023-12-22T01:21:17;92978.53;;;9.83;49.72
79461;BME280;68929;42.666;23.324;2023-12-22T01:23:43;92955.38;;;9.63;49.99
79461;BME280;68929;42.666;23.324;2023-12-22T01:26:08;92956.69;;;9.66;49.46
79461;BME280;68929;42.666;23.324;2023-12-22T01:28:34;92970.31;;;9.53;52.06
79461;BME280;68929;42.666;23.324;2023-12-22T01:31:00;92974.13;;;9.19;51.38
79461;BME280;68929;42.666;23.324;2023-12-22T01:33:25;92956.22;;;9.21;51.27
79461;BME280;68929;42.666;23.324;2023-12-22T01:35:51;92973.59;;;9.92;50.26
79461;BME280;68929;42.666;23.324;2023-12-22T01:38:17;92932.84;;;9.51;50.61
79461;BME280;68929;42.666;23.324;2023-12-22T01:40:42;92932.16;;;9.39;50.40
79461;BME280;68929;42.666;23.324;2023-12-22T01:43:08;92943.53;;;8.96;51.32
79461;BME280;68929;42.666;23.324;2023-12-22T01:45:33;92945.22;;;9.29;51.97
79461;BME280;68929;42.666;23.324;2023-12-22T01:47:58;92887.94;;;8.54;52.38
79461;BME280;68929;42.666;23.324;2023-12-22T01:50:25;92920.66;;;9.45;50.89
79461;BME280;68929;42.666;23.324;2023-12-22T01:52:50;92921.03;;;9.32;51.95
79461;BME280;68929;42.666;23.324;2023-12-22T01:55:16;92884.22;;;9.42;51.21
79461;BME280;68929;42.666;23.324;2023-12-22T01:57:43;92938.06;;;10.04;49.84
79461;BME280;68929;42.666;23.324;2023-12-22T02:00:10;92923.59;;;9.27;49.56
79461;BME280;68929;42.666;23.324;2023-12-22T02:02:36;92901.81;;;9.63;51.60
79461;BME280;68929;42.666;23.324;2023-12-22T02:05:04;92913.22;;;9.42;50.18
79461;BME280;68929;42.666;23.324;2023-12-22T02:07:30;92929.50;;;10.51;48.94
79461;BME280;68929;42.666;23.324;2023-12-22T02:09:56;92881.75;;;9.89;49.01
79461;BME280;68929;42.666;23.324;2023-12-22T02:12:21;92938.31;;;10.29;49.69
79461;BME280;68929;42.666;23.324;2023-12-22T02:14:47;92913.91;;;10.49;48.57
79461;BME280;68929;42.666;23.324;2023-12-22T02:19:48;92918.53;;;10.74;48.55
79461;BME280;68929;42.666;23.324;2023-12-22T02:22:13;92906.94;;;10.80;48.17
79461;BME280;68929;42.666;23.324;2023-12-22T02:24:40;92927.72;;;11.13;48.06
79461;BME280;68929;42.666;23.324;2023-12-22T02:30:26;92920.34;;;11.25;47.93
79461;BME280;68929;42.666;23.324;2023-12-22T02:32:56;92918.81;;;11.34;46.95
79461;BME280;68929;42.666;23.324;2023-12-22T02:35:25;92907.19;;;11.40;47.39
79461;BME280;68929;42.666;23.324;2023-12-22T02:37:52;92921.63;;;11.12;46.62
79461;BME280;68929;42.666;23.324;2023-12-22T02:40:19;92881.59;;;10.84;47.82
79461;BME280;68929;42.666;23.324;2023-12-22T02:42:45;92865.56;;;10.54;48.04
79461;BME280;68929;42.666;23.324;2023-12-22T02:45:16;92872.72;;;10.58;48.12
79461;BME280;68929;42.666;23.324;2023-12-22T02:47:41;92859.81;;;10.67;48.09
79461;BME280;68929;42.666;23.324;2023-12-22T02:50:08;92886.13;;;10.98;47.51
79461;BME280;68929;42.666;23.324;2023-12-22T02:52:33;92905.00;;;11.22;47.84
79461;BME280;68929;42.666;23.324;2023-12-22T02:54:59;92883.06;;;11.21;47.44
79461;BME280;68929;42.666;23.324;2023-12-22T02:57:24;92890.25;;;11.46;47.02
79461;BME280;68929;42.666;23.324;2023-12-22T02:59:49;92864.19;;;10.93;47.03
79461;BME280;68929;42.666;23.324;2023-12-22T03:02:15;92866.00;;;10.87;47.85
79461;BME280;68929;42.666;23.324;2023-12-22T03:04:40;92834.38;;;10.51;47.75
79461;BME280;68929;42.666;23.324;2023-12-22T03:07:06;92882.97;;;11.01;48.17
79461;BME280;68929;42.666;23.324;2023-12-22T03:09:31;92871.22;;;11.44;47.15
79461;BME280;68929;42.666;23.324;2023-12-22T03:11:58;92849.75;;;11.31;46.38
79461;BME280;68929;42.666;23.324;2023-12-22T03:14:31;92877.00;;;11.31;47.18
79461;BME280;68929;42.666;23.324;2023-12-22T03:16:58;92894.69;;;11.25;46.40
79461;BME280;68929;42.666;23.324;2023-12-22T03:19:24;92880.69;;;11.20;47.27
79461;BME280;68929;42.666;23.324;2023-12-22T03:21:49;92893.38;;;11.18;48.00
79461;BME280;68929;42.666;23.324;2023-12-22T03:24:14;92893.97;;;11.45;47.31
79461;BME280;68929;42.666;23.324;2023-12-22T03:26:40;92860.88;;;11.48;46.27
79461;BME280;68929;42.666;23.324;2023-12-22T03:29:05;92882.78;;;11.23;46.57
79461;BME280;68929;42.666;23.324;2023-12-22T03:31:30;92820.28;;;10.92;47.09
79461;BME280;68929;42.666;23.324;2023-12-22T03:33:56;92900.59;;;11.58;47.10
79461;BME280;68929;42.666;23.324;2023-12-22T03:36:21;92899.22;;;11.30;46.67
79461;BME280;68929;42.666;23.324;2023-12-22T03:38:47;92868.41;;;10.89;47.49
79461;BME280;68929;42.666;23.324;2023-12-22T03:41:15;92898.56;;;10.98;47.85
79461;BME280;68929;42.666;23.324;2023-12-22T03:43:41;92849.84;;;10.79;47.78
79461;BME280;68929;42.666;23.324;2023-12-22T03:46:06;92860.53;;;11.14;48.08
79461;BME280;68929;42.666;23.324;2023-12-22T03:48:32;92887.53;;;11.21;47.97
79461;BME280;68929;42.666;23.324;2023-12-22T03:50:58;92874.06;;;11.17;47.23
79461;BME280;68929;42.666;23.324;2023-12-22T03:53:23;92883.47;;;11.85;46.67
79461;BME280;68929;42.666;23.324;2023-12-22T03:55:48;92830.00;;;11.68;46.23
79461;BME280;68929;42.666;23.324;2023-12-22T03:58:14;92876.59;;;11.79;46.44
79461;BME280;68929;42.666;23.324;2023-12-22T04:00:39;92886.66;;;11.77;46.36
79461;BME280;68929;42.666;23.324;2023-12-22T04:03:05;92890.81;;;11.53;47.08
79461;BME280;68929;42.666;23.324;2023-12-22T04:05:30;92855.75;;;11.06;46.99
79461;BME280;68929;42.666;23.324;2023-12-22T04:07:55;92893.41;;;11.28;47.10
79461;BME280;68929;42.666;23.324;2023-12-22T04:10:21;92892.88;;;10.27;48.90
79461;BME280;68929;42.666;23.324;2023-12-22T04:12:46;92894.69;;;9.37;48.89
79461;BME280;68929;42.666;23.324;2023-12-22T04:15:12;92890.69;;;8.26;51.65
79461;BME280;68929;42.666;23.324;2023-12-22T04:17:40;92902.75;;;7.28;54.23
79461;BME280;68929;42.666;23.324;2023-12-22T04:20:07;92891.19;;;7.28;55.44
79461;BME280;68929;42.666;23.324;2023-12-22T04:22:32;92884.75;;;7.19;58.04
79461;BME280;68929;42.666;23.324;2023-12-22T04:24:58;92847.00;;;7.25;57.96
79461;BME280;68929;42.666;23.324;2023-12-22T04:27:23;92880.56;;;7.07;55.73
79461;BME280;68929;42.666;23.324;2023-12-22T04:29:49;92875.38;;;8.23;56.50
79461;BME280;68929;42.666;23.324;2023-12-22T04:32:14;92862.31;;;8.93;54.42
79461;BME280;68929;42.666;23.324;2023-12-22T04:34:39;92855.94;;;9.11;54.57
79461;BME280;68929;42.666;23.324;2023-12-22T04:37:05;92826.97;;;9.69;52.50
79461;BME280;68929;42.666;23.324;2023-12-22T04:39:31;92869.59;;;10.19;51.76
79461;BME280;68929;42.666;23.324;2023-12-22T04:41:56;92862.28;;;10.31;52.10
79461;BME280;68929;42.666;23.324;2023-12-22T04:44:21;92870.09;;;10.16;52.09
79461;BME280;68929;42.666;23.324;2023-12-22T04:46:47;92840.13;;;10.37;51.48
79461;BME280;68929;42.666;23.324;2023-12-22T04:49:12;92853.75;;;10.19;52.50
79461;BME280;68929;42.666;23.324;2023-12-22T04:51:38;92823.78;;;9.67;54.02
79461;BME280;68929;42.666;23.324;2023-12-22T04:54:03;92833.81;;;9.70;53.29
79461;BME280;68929;42.666;23.324;2023-12-22T04:56:28;92833.66;;;10.13;52.65
79461;BME280;68929;42.666;23.324;2023-12-22T04:58:54;92850.31;;;10.66;50.94
79461;BME280;68929;42.666;23.324;2023-12-22T05:01:19;92819.78;;;10.38;52.01
79461;BME280;68929;42.666;23.324;2023-12-22T05:03:46;92859.66;;;10.36;51.70
79461;BME280;68929;42.666;23.324;2023-12-22T05:06:11;92852.50;;;10.84;51.34
79461;BME280;68929;42.666;23.324;2023-12-22T05:08:36;92843.25;;;10.76;50.78
79461;BME280;68929;42.666;23.324;2023-12-22T05:11:02;92827.97;;;10.36;50.66
79461;BME280;68929;42.666;23.324;2023-12-22T05:13:28;92821.88;;;10.98;49.84
79461;BME280;68929;42.666;23.324;2023-12-22T05:15:53;92854.69;;;10.08;51.89
79461;BME280;68929;42.666;23.324;2023-12-22T05:18:20;92821.88;;;9.99;50.27
79461;BME280;68929;42.666;23.324;2023-12-22T05:20:45;92846.88;;;10.18;51.18
79461;BME280;68929;42.666;23.324;2023-12-22T05:23:11;92835.22;;;10.14;53.26
79461;BME280;68929;42.666;23.324;2023-12-22T05:25:36;92833.44;;;10.20;51.42
79461;BME280;68929;42.666;23.324;2023-12-22T05:28:02;92806.97;;;9.15;54.20
79461;BME280;68929;42.666;23.324;2023-12-22T05:30:27;92806.88;;;9.63;53.24
79461;BME280;68929;42.666;23.324;2023-12-22T05:32:52;92833.25;;;10.36;50.99
79461;BME280;68929;42.666;23.324;2023-12-22T05:35:19;92851.47;;;9.38;54.98
79461;BME280;68929;42.666;23.324;2023-12-22T05:37:45;92869.97;;;9.43;53.99
79461;BME280;68929;42.666;23.324;2023-12-22T05:40:10;92850.59;;;9.06;53.50
79461;BME280;68929;42.666;23.324;2023-12-22T05:42:37;92851.47;;;8.08;57.09
79461;BME280;68929;42.666;23.324;2023-12-22T05:45:02;92864.22;;;7.66;58.13
79461;BME280;68929;42.666;23.324;2023-12-22T05:47:28;92846.34;;;8.18;59.91
79461;BME280;68929;42.666;23.324;2023-12-22T05:49:54;92855.66;;;8.42;55.46
79461;BME280;68929;42.666;23.324;2023-12-22T05:52:19;92823.13;;;8.53;55.52
79461;BME280;68929;42.666;23.324;2023-12-22T05:54:44;92834.66;;;9.44;54.49
79461;BME280;68929;42.666;23.324;2023-12-22T05:57:10;92811.28;;;9.89;53.25
79461;BME280;68929;42.666;23.324;2023-12-22T05:59:35;92793.16;;;10.50;51.57
79461;BME280;68929;42.666;23.324;2023-12-22T06:02:01;92784.03;;;10.20;51.54
79461;BME280;68929;42.666;23.324;2023-12-22T06:04:27;92831.97;;;11.16;49.92
79461;BME280;68929;42.666;23.324;2023-12-22T06:06:53;92819.97;;;11.80;49.38
79461;BME280;68929;42.666;23.324;2023-12-22T06:09:18;92835.00;;;10.73;51.16
79461;BME280;68929;42.666;23.324;2023-12-22T06:11:46;92810.53;;;11.02;50.37
79461;BME280;68929;42.666;23.324;2023-12-22T06:14:25;92848.44;;;11.38;49.95
79461;BME280;68929;42.666;23.324;2023-12-22T06:16:50;92839.47;;;11.44;50.02
79461;BME280;68929;42.666;23.324;2023-12-22T06:19:16;92847.41;;;11.44;48.81
79461;BME280;68929;42.666;23.324;2023-12-22T06:21:42;92867.22;;;10.65;50.27
79461;BME280;68929;42.666;23.324;2023-12-22T06:24:07;92853.50;;;10.73;51.47
79461;BME280;68929;42.666;23.324;2023-12-22T06:26:33;92850.22;;;9.77;54.26
79461;BME280;68929;42.666;23.324;2023-12-22T06:28:59;92865.38;;;10.70;52.69
79461;BME280;68929;42.666;23.324;2023-12-22T06:31:25;92840.41;;;10.98;50.65
79461;BME280;68929;42.666;23.324;2023-12-22T06:33:51;92858.50;;;11.36;49.36
79461;BME280;68929;42.666;23.324;2023-12-22T06:36:23;92860.22;;;10.43;52.63
79461;BME280;68929;42.666;23.324;2023-12-22T06:38:50;92863.44;;;10.56;52.56
79461;BME280;68929;42.666;23.324;2023-12-22T06:41:26;92852.97;;;10.66;51.69
79461;BME280;68929;42.666;23.324;2023-12-22T06:43:52;92865.88;;;10.57;52.29
79461;BME280;68929;42.666;23.324;2023-12-22T06:46:19;92870.63;;;10.18;53.69
79461;BME280;68929;42.666;23.324;2023-12-22T06:48:45;92857.66;;;10.59;53.29
79461;BME280;68929;42.666;23.324;2023-12-22T06:51:22;92876.25;;;10.79;50.44
79461;BME280;68929;42.666;23.324;2023-12-22T06:53:48;92867.13;;;10.50;53.10
79461;BME280;68929;42.666;23.324;2023-12-22T06:56:18;92868.25;;;10.59;53.17
79461;BME280;68929;42.666;23.324;2023-12-22T06:58:44;92861.19;;;10.27;53.49
79461;BME280;68929;42.666;23.324;2023-12-22T07:01:12;92837.81;;;10.09;51.77
79461;BME280;68929;42.666;23.324;2023-12-22T07:03:48;92852.75;;;9.62;53.82
79461;BME280;68929;42.666;23.324;2023-12-22T07:06:20;92797.41;;;9.67;54.42
79461;BME280;68929;42.666;23.324;2023-12-22T07:11:40;92839.91;;;11.01;51.88
79461;BME280;68929;42.666;23.324;2023-12-22T07:14:06;92848.31;;;10.98;51.73
79461;BME280;68929;42.666;23.324;2023-12-22T07:16:32;92882.84;;;11.43;51.86
79461;BME280;68929;42.666;23.324;2023-12-22T07:18:58;92842.53;;;11.06;51.82
79461;BME280;68929;42.666;23.324;2023-12-22T07:21:23;92887.97;;;10.93;53.11
79461;BME280;68929;42.666;23.324;2023-12-22T07:23:49;92838.59;;;10.47;53.42
79461;BME280;68929;42.666;23.324;2023-12-22T07:26:14;92866.19;;;10.71;52.77
79461;BME280;68929;42.666;23.324;2023-12-22T07:28:41;92877.38;;;10.41;54.17
79461;BME280;68929;42.666;23.324;2023-12-22T07:31:07;92894.75;;;10.00;55.74
79461;BME280;68929;42.666;23.324;2023-12-22T07:33:33;92843.38;;;9.76;55.79
79461;BME280;68929;42.666;23.324;2023-12-22T07:35:58;92886.16;;;10.52;54.43
79461;BME280;68929;42.666;23.324;2023-12-22T07:38:23;92881.28;;;10.75;54.38
79461;BME280;68929;42.666;23.324;2023-12-22T07:40:49;92864.38;;;10.81;52.92
79461;BME280;68929;42.666;23.324;2023-12-22T07:43:15;92890.72;;;10.66;54.35
79461;BME280;68929;42.666;23.324;2023-12-22T07:45:41;92883.66;;;10.77;53.75
79461;BME280;68929;42.666;23.324;2023-12-22T07:48:06;92852.13;;;10.55;54.57
79461;BME280;68929;42.666;23.324;2023-12-22T07:50:32;92886.69;;;10.54;54.88
79461;BME280;68929;42.666;23.324;2023-12-22T07:52:58;92908.88;;;10.99;53.35
79461;BME280;68929;42.666;23.324;2023-12-22T07:55:25;92860.22;;;10.90;53.69
79461;BME280;68929;42.666;23.324;2023-12-22T07:57:51;92918.00;;;10.72;54.69
79461;BME280;68929;42.666;23.324;2023-12-22T08:00:19;92923.91;;;9.84;56.60
79461;BME280;68929;42.666;23.324;2023-12-22T08:02:45;92903.00;;;9.77;56.14
79461;BME280;68929;42.666;23.324;2023-12-22T08:05:10;92922.28;;;10.09;56.30
79461;BME280;68929;42.666;23.324;2023-12-22T08:07:36;92932.66;;;10.53;55.08
79461;BME280;68929;42.666;23.324;2023-12-22T08:10:02;92909.97;;;9.88;56.02
79461;BME280;68929;42.666;23.324;2023-12-22T08:12:28;92926.78;;;9.29;58.62
79461;BME280;68929;42.666;23.324;2023-12-22T08:14:58;92911.06;;;9.39;58.44
79461;BME280;68929;42.666;23.324;2023-12-22T08:17:23;92939.63;;;10.00;57.75
79461;BME280;68929;42.666;23.324;2023-12-22T08:19:49;92951.63;;;10.44;56.74
79461;BME280;68929;42.666;23.324;2023-12-22T08:22:15;92952.78;;;10.22;56.92
79461;BME280;68929;42.666;23.324;2023-12-22T08:24:40;92954.31;;;9.91;58.69
79461;BME280;68929;42.666;23.324;2023-12-22T08:27:07;92940.81;;;10.14;58.48
79461;BME280;68929;42.666;23.324;2023-12-22T08:29:32;92932.09;;;9.87;59.23
79461;BME280;68929;42.666;23.324;2023-12-22T08:31:58;92925.25;;;9.33;58.84
79461;BME280;68929;42.666;23.324;2023-12-22T08:34:24;92958.34;;;9.02;60.11
79461;BME280;68929;42.666;23.324;2023-12-22T08:36:49;92962.91;;;8.68;61.91
79461;BME280;68929;42.666;23.324;2023-12-22T08:39:14;92953.63;;;8.44;65.19
79461;BME280;68929;42.666;23.324;2023-12-22T08:41:40;92905.25;;;8.50;63.71
79461;BME280;68929;42.666;23.324;2023-12-22T08:44:07;92953.25;;;8.96;62.65
79461;BME280;68929;42.666;23.324;2023-12-22T08:46:33;92892.69;;;8.57;63.40
79461;BME280;68929;42.666;23.324;2023-12-22T08:48:58;92954.97;;;8.63;64.96
79461;BME280;68929;42.666;23.324;2023-12-22T08:51:27;92947.50;;;8.77;64.39
79461;BME280;68929;42.666;23.324;2023-12-22T08:53:54;92953.06;;;9.72;62.01
79461;BME280;68929;42.666;23.324;2023-12-22T08:56:22;92955.53;;;10.05;60.10
79461;BME280;68929;42.666;23.324;2023-12-22T08:58:48;92949.41;;;10.31;59.50
79461;BME280;68929;42.666;23.324;2023-12-22T09:01:17;92959.19;;;10.68;58.94
79461;BME280;68929;42.666;23.324;2023-12-22T09:03:43;92895.28;;;10.02;59.40
79461;BME280;68929;42.666;23.324;2023-12-22T09:06:18;92972.81;;;10.18;59.27
79461;BME280;68929;42.666;23.324;2023-12-22T09:08:44;92972.00;;;10.17;59.72
79461;BME280;68929;42.666;23.324;2023-12-22T09:11:15;92977.88;;;10.24;60.52
79461;BME280;68929;42.666;23.324;2023-12-22T09:13:41;92975.00;;;10.26;59.56
79461;BME280;68929;42.666;23.324;2023-12-22T09:16:07;92984.31;;;9.80;61.62
79461;BME280;68929;42.666;23.324;2023-12-22T09:18:33;92989.97;;;9.67;62.83
79461;BME280;68929;42.666;23.324;2023-12-22T09:21:00;92987.19;;;9.30;63.67
79461;BME280;68929;42.666;23.324;2023-12-22T09:23:25;92964.59;;;8.96;63.96
79461;BME280;68929;42.666;23.324;2023-12-22T09:25:50;92997.59;;;8.99;63.33
79461;BME280;68929;42.666;23.324;2023-12-22T09:28:16;92973.28;;;7.92;65.98
79461;BME280;68929;42.666;23.324;2023-12-22T09:30:41;92983.38;;;8.28;67.90
79461;BME280;68929;42.666;23.324;2023-12-22T09:33:09;92981.94;;;8.37;68.09
79461;BME280;68929;42.666;23.324;2023-12-22T09:35:34;92970.25;;;8.66;66.42
79461;BME280;68929;42.666;23.324;2023-12-22T09:38:00;92959.16;;;9.03;65.59
79461;BME280;68929;42.666;23.324;2023-12-22T09:40:26;92922.63;;;8.90;64.46
79461;BME280;68929;42.666;23.324;2023-12-22T09:42:55;92940.25;;;8.67;65.40
79461;BME280;68929;42.666;23.324;2023-12-22T09:45:30;92964.38;;;9.19;65.60
79461;BME280;68929;42.666;23.324;2023-12-22T09:47:56;92923.84;;;9.04;65.46
79461;BME280;68929;42.666;23.324;2023-12-22T09:50:24;92933.84;;;9.02;63.82
79461;BME280;68929;42.666;23.324;2023-12-22T09:52:50;92940.09;;;8.57;67.76
79461;BME280;68929;42.666;23.324;2023-12-22T09:55:18;92966.63;;;9.11;67.24
79461;BME280;68929;42.666;23.324;2023-12-22T09:57:52;92953.69;;;9.79;64.80
79461;BME280;68929;42.666;23.324;2023-12-22T10:00:22;92903.91;;;9.61;64.66
79461;BME280;68929;42.666;23.324;2023-12-22T10:02:48;92929.06;;;10.00;63.55
79461;BME280;68929;42.666;23.324;2023-12-22T10:05:13;92941.63;;;10.52;61.95
79461;BME280;68929;42.666;23.324;2023-12-22T10:07:44;92933.16;;;10.50;61.92
79461;BME280;68929;42.666;23.324;2023-12-22T10:10:11;92936.63;;;10.18;62.82
79461;BME280;68929;42.666;23.324;2023-12-22T10:12:41;92949.81;;;10.13;62.63
79461;BME280;68929;42.666;23.324;2023-12-22T10:15:08;92873.25;;;9.87;61.87
79461;BME280;68929;42.666;23.324;2023-12-22T10:17:34;92930.28;;;10.51;61.38
79461;BME280;68929;42.666;23.324;2023-12-22T10:20:00;92933.84;;;11.23;59.26
79461;BME280;68929;42.666;23.324;2023-12-22T10:22:25;92894.44;;;11.22;58.58
79461;BME280;68929;42.666;23.324;2023-12-22T10:24:50;92866.50;;;10.74;59.63
79461;BME280;68929;42.666;23.324;2023-12-22T10:27:17;92919.19;;;11.01;60.45
79461;BME280;68929;42.666;23.324;2023-12-22T10:29:50;92902.03;;;11.03;59.95
79461;BME280;68929;42.666;23.324;2023-12-22T10:32:16;92864.25;;;11.13;59.55
79461;BME280;68929;42.666;23.324;2023-12-22T10:34:42;92899.28;;;11.55;59.42
79461;BME280;68929;42.666;23.324;2023-12-22T10:37:08;92905.16;;;11.72;58.84
79461;BME280;68929;42.666;23.324;2023-12-22T10:39:36;92899.28;;;11.60;57.92
79461;BME280;68929;42.666;23.324;2023-12-22T10:42:02;92896.09;;;11.58;59.31
79461;BME280;68929;42.666;23.324;2023-12-22T10:44:32;92858.47;;;11.26;59.71
79461;BME280;68929;42.666;23.324;2023-12-22T10:47:00;92852.50;;;12.06;57.83
79461;BME280;68929;42.666;23.324;2023-12-22T10:49:28;92838.47;;;12.11;57.86
79461;BME280;68929;42.666;23.324;2023-12-22T10:52:06;92846.34;;;12.46;56.78
79461;BME280;68929;42.666;23.324;2023-12-22T10:54:31;92855.50;;;12.99;56.09
79461;BME280;68929;42.666;23.324;2023-12-22T10:57:00;92848.97;;;12.61;57.20
79461;BME280;68929;42.666;23.324;2023-12-22T10:59:28;92851.56;;;12.81;57.40
79461;BME280;68929;42.666;23.324;2023-12-22T11:01:57;92852.44;;;12.56;57.84
79461;BME280;68929;42.666;23.324;2023-12-22T11:04:31;92810.94;;;11.96;58.60
79461;BME280;68929;42.666;23.324;2023-12-22T11:07:19;92849.03;;;12.21;58.98
79461;BME280;68929;42.666;23.324;2023-12-22T11:10:07;92825.22;;;12.21;58.44
79461;BME280;68929;42.666;23.324;2023-12-22T11:12:40;92846.66;;;11.79;59.75
79461;BME280;68929;42.666;23.324;2023-12-22T11:15:07;92800.63;;;11.80;59.24
79461;BME280;68929;42.666;23.324;2023-12-22T11:17:34;92818.09;;;11.91;59.12
79461;BME280;68929;42.666;23.324;2023-12-22T11:20:01;92798.50;;;11.92;59.40
79461;BME280;68929;42.666;23.324;2023-12-22T11:22:28;92771.22;;;11.61;58.11
79461;BME280;68929;42.666;23.324;2023-12-22T11:24:55;92810.94;;;11.66;59.81
79461;BME280;68929;42.666;23.324;2023-12-22T11:27:23;92818.19;;;10.94;61.62
79461;BME280;68929;42.666;23.324;2023-12-22T11:29:50;92793.84;;;10.82;58.43
79461;BME280;68929;42.666;23.324;2023-12-22T11:32:17;92813.81;;;10.58;58.97
79461;BME280;68929;42.666;23.324;2023-12-22T11:34:44;92825.00;;;10.85;59.57
79461;BME280;68929;42.666;23.324;2023-12-22T11:37:19;92842.66;;;11.56;54.89
79461;BME280;68929;42.666;23.324;2023-12-22T11:39:45;92830.88;;;10.92;56.60
79461;BME280;68929;42.666;23.324;2023-12-22T11:42:18;92846.06;;;10.60;59.40
79461;BME280;68929;42.666;23.324;2023-12-22T11:44:45;92832.25;;;10.42;58.11
79461;BME280;68929;42.666;23.324;2023-12-22T11:47:10;92864.38;;;11.53;57.51
79461;BME280;68929;42.666;23.324;2023-12-22T11:49:38;92863.84;;;10.79;57.23
79461;BME280;68929;42.666;23.324;2023-12-22T11:52:11;92821.84;;;10.78;58.40
79461;BME280;68929;42.666;23.324;2023-12-22T11:54:51;92869.47;;;10.93;57.55
79461;BME280;68929;42.666;23.324;2023-12-22T11:57:46;92860.00;;;11.07;55.78
79461;BME280;68929;42.666;23.324;2023-12-22T12:02:54;92839.75;;;10.71;55.07
79461;BME280;68929;42.666;23.324;2023-12-22T12:05:20;92847.53;;;9.72;58.02
79461;BME280;68929;42.666;23.324;2023-12-22T12:07:50;92835.66;;;10.95;56.53
79461;BME280;68929;42.666;23.324;2023-12-22T12:13:27;92866.03;;;10.40;57.00
79461;BME280;68929;42.666;23.324;2023-12-22T12:15:55;92865.94;;;10.77;56.73
79461;BME280;68929;42.666;23.324;2023-12-22T12:18:23;92855.44;;;10.35;57.14
79461;BME280;68929;42.666;23.324;2023-12-22T12:20:49;92842.59;;;9.81;57.41
79461;BME280;68929;42.666;23.324;2023-12-22T12:23:15;92840.22;;;9.79;59.10
79461;BME280;68929;42.666;23.324;2023-12-22T12:25:42;92844.88;;;9.67;59.24
79461;BME280;68929;42.666;23.324;2023-12-22T12:28:11;92816.91;;;9.66;57.42
79461;BME280;68929;42.666;23.324;2023-12-22T12:30:38;92838.94;;;10.13;54.74
79461;BME280;68929;42.666;23.324;2023-12-22T12:33:11;92822.50;;;9.43;59.64
79461;BME280;68929;42.666;23.324;2023-12-22T12:35:38;92820.41;;;9.77;57.51
79461;BME280;68929;42.666;23.324;2023-12-22T12:38:04;92818.88;;;10.17;55.51
79461;BME280;68929;42.666;23.324;2023-12-22T12:40:39;92791.19;;;10.87;54.01
79461;BME280;68929;42.666;23.324;2023-12-22T12:43:09;92801.34;;;11.20;51.77
79461;BME280;68929;42.666;23.324;2023-12-22T12:45:34;92778.66;;;10.05;54.62
79461;BME280;68929;42.666;23.324;2023-12-22T12:48:01;92794.13;;;9.55;56.26
79461;BME280;68929;42.666;23.324;2023-12-22T12:50:27;92781.09;;;9.43;57.59
79461;BME280;68929;42.666;23.324;2023-12-22T12:52:59;92802.81;;;9.50;57.26
79461;BME280;68929;42.666;23.324;2023-12-22T12:55:25;92794.50;;;10.52;54.97
79461;BME280;68929;42.666;23.324;2023-12-22T12:57:55;92801.50;;;9.90;56.02
79461;BME280;68929;42.666;23.324;2023-12-22T13:00:31;92841.81;;;10.59;55.65
79461;BME280;68929;42.666;23.324;2023-12-22T13:03:01;92815.44;;;9.80;54.44
79461;BME280;68929;42.666;23.324;2023-12-22T13:05:30;92836.81;;;9.52;55.11